Time;durP1;ratioP1;P1;durP2;ratioP2;P2;SDS_P1;SDS_P2;PMS_P1;PMS_P2;Temp;Humidity;BMP_temperature;BMP_pressure;BME280_temperature;BME280_humidity;BME280_pressure;Samples;Min_cycle;Max_cycle;Signal;HPM_P1;HPM_P2
2022/05/21 00:00:11;;;;;;;1.08;0.95;;;21.50;52.80;;;;;;6226811;28;20120;-67
2022/05/21 00:03:12;;;;;;;1.00;0.90;;;21.50;53.50;;;;;;6244282;28;20096;-68
2022/05/21 00:06:13;;;;;;;1.30;0.80;;;21.50;52.80;;;;;;6244108;28;20087;-67
2022/05/21 00:09:14;;;;;;;1.08;0.98;;;21.50;52.80;;;;;;6226635;28;20033;-67
2022/05/21 00:12:15;;;;;;;1.13;1.00;;;21.50;52.80;;;;;;6242717;28;20485;-67
2022/05/21 00:15:19;;;;;;;1.30;1.10;;;21.50;52.80;;;;;;6243699;28;20026;-67
2022/05/21 00:18:20;;;;;;;1.25;1.10;;;21.50;52.80;;;;;;6226543;28;20021;-67
2022/05/21 00:21:20;;;;;;;1.20;1.10;;;21.50;52.80;;;;;;6244323;28;20393;-68
2022/05/21 00:24:21;;;;;;;1.52;1.05;;;21.50;52.90;;;;;;6244298;28;20269;-67
2022/05/21 00:27:22;;;;;;;1.08;0.98;;;21.50;52.80;;;;;;6243024;28;20060;-67
2022/05/21 00:30:23;;;;;;;1.10;1.00;;;21.50;52.80;;;;;;6226258;28;20417;-67
2022/05/21 00:33:24;;;;;;;1.40;1.20;;;21.50;52.80;;;;;;6243996;28;20049;-67
2022/05/21 00:36:25;;;;;;;1.25;1.00;;;21.50;52.90;;;;;;6243865;28;20503;-67
2022/05/21 00:39:28;;;;;;;1.10;1.00;;;21.50;52.90;;;;;;6244157;28;20022;-67
2022/05/21 00:42:29;;;;;;;1.25;1.15;;;21.50;52.90;;;;;;6243865;28;20025;-68
2022/05/21 00:45:30;;;;;;;1.13;1.02;;;21.50;52.90;;;;;;6243882;28;20025;-67
2022/05/21 00:48:32;;;;;;;1.15;1.05;;;21.50;52.90;;;;;;6243578;28;20400;-68
2022/05/21 00:51:38;;;;;;;1.23;1.10;;;21.50;53.60;;;;;;6243757;28;20477;-68
2022/05/21 00:54:48;;;;;;;1.25;1.13;;;21.50;52.90;;;;;;6242609;28;20025;-67
2022/05/21 01:01:24;;;;;;;1.30;1.20;;;21.50;52.90;;;;;;6243555;28;20025;-68
2022/05/21 01:04:25;;;;;;;1.10;1.00;;;21.50;52.90;;;;;;6243717;28;20068;-67
2022/05/21 01:07:26;;;;;;;1.00;0.90;;;21.50;52.90;;;;;;6248792;28;20036;-67
2022/05/21 01:10:44;;;;;;;1.13;1.02;;;21.50;52.90;;;;;;6268109;28;20045;-67
2022/05/21 01:13:49;;;;;;;1.25;1.10;;;21.50;52.90;;;;;;6268291;28;20032;-68
2022/05/21 01:16:51;;;;;;;1.23;1.10;;;21.50;52.90;;;;;;6268315;28;20028;-67
2022/05/21 01:20:05;;;;;;;1.27;1.17;;;21.50;52.90;;;;;;6267908;28;20036;-67
2022/05/21 01:23:07;;;;;;;1.20;1.10;;;21.50;52.90;;;;;;6268137;28;20021;-67
2022/05/21 01:26:14;;;;;;;1.30;1.20;;;21.50;52.90;;;;;;6271114;28;20104;-67
2022/05/21 01:29:21;;;;;;;1.23;1.13;;;21.50;52.90;;;;;;6255358;28;20025;-67
2022/05/21 01:32:23;;;;;;;1.23;1.10;;;21.50;52.90;;;;;;6272799;28;20605;-67
2022/05/21 01:35:24;;;;;;;1.13;0.93;;;21.50;52.90;;;;;;6273426;28;20100;-67
2022/05/21 01:38:28;;;;;;;1.55;1.27;;;21.50;52.90;;;;;;6272871;28;20442;-67
2022/05/21 01:41:29;;;;;;;1.40;1.23;;;21.50;52.90;;;;;;6272875;28;20056;-67
2022/05/21 01:44:38;;;;;;;1.30;1.20;;;21.50;52.90;;;;;;6272339;28;20047;-68
2022/05/21 01:47:42;;;;;;;1.10;1.00;;;21.50;52.90;;;;;;6272969;28;20029;-68
2022/05/21 01:50:42;;;;;;;1.27;1.13;;;21.50;52.90;;;;;;6254424;28;20025;-67
2022/05/21 01:53:44;;;;;;;1.90;1.48;;;21.50;52.90;;;;;;6235732;28;20219;-67
2022/05/21 01:56:45;;;;;;;4.22;1.33;;;21.50;52.90;;;;;;6247597;28;20691;-67
2022/05/21 01:59:46;;;;;;;1.20;1.10;;;21.50;53.00;;;;;;6247838;28;20036;-67
2022/05/21 02:06:52;;;;;;;1.00;0.90;;;21.50;53.00;;;;;;6103424;28;20519;-67
2022/05/21 02:09:54;;;;;;;1.30;1.10;;;21.50;52.90;;;;;;6253894;28;20053;-68
2022/05/21 02:12:55;;;;;;;1.15;1.05;;;21.50;53.00;;;;;;6271526;28;20029;-67
2022/05/21 02:15:56;;;;;;;1.08;0.98;;;21.50;52.90;;;;;;6254023;28;20434;-67
2022/05/21 02:19:01;;;;;;;1.85;1.17;;;21.50;52.90;;;;;;6254035;28;20088;-67
2022/05/21 02:22:02;;;;;;;1.42;1.33;;;21.50;53.00;;;;;;6271799;28;20024;-67
2022/05/21 02:25:08;;;;;;;1.23;1.13;;;21.50;53.00;;;;;;6271283;28;20628;-68
2022/05/21 02:28:12;;;;;;;1.15;1.05;;;21.50;53.00;;;;;;6271502;28;20021;-67
2022/05/21 02:31:14;;;;;;;1.10;1.00;;;21.50;53.00;;;;;;6271358;28;20082;-67
2022/05/21 02:34:16;;;;;;;1.40;1.20;;;21.50;53.00;;;;;;6271227;28;20095;-67
2022/05/21 02:46:05;;;;;;;1.40;1.30;;;21.50;53.00;;;;;;6270868;28;20021;-67
2022/05/21 02:49:08;;;;;;;1.40;1.30;;;21.50;53.00;;;;;;6271416;28;20494;-67
2022/05/21 02:52:11;;;;;;;1.20;1.10;;;21.50;53.10;;;;;;6247240;28;20060;-67
2022/05/21 02:55:14;;;;;;;1.23;1.08;;;21.50;53.00;;;;;;6246502;28;20022;-67
2022/05/21 02:58:17;;;;;;;1.10;1.00;;;21.50;53.00;;;;;;6246334;28;20025;-67
2022/05/21 03:01:18;;;;;;;1.30;1.20;;;21.50;53.00;;;;;;6246058;28;20029;-67
2022/05/21 03:04:20;;;;;;;1.30;1.17;;;21.50;53.00;;;;;;6245927;28;20083;-67
2022/05/21 03:07:22;;;;;;;1.13;1.00;;;21.50;53.00;;;;;;6245960;28;20067;-67
2022/05/21 03:10:27;;;;;;;1.05;0.93;;;21.50;53.00;;;;;;6245916;28;20574;-67
2022/05/21 03:13:29;;;;;;;1.33;1.23;;;21.50;53.10;;;;;;6227750;28;20399;-67
2022/05/21 03:16:31;;;;;;;1.58;1.20;;;21.50;53.00;;;;;;6245894;28;20452;-67
2022/05/21 03:19:35;;;;;;;1.30;1.20;;;21.50;53.00;;;;;;6244631;28;20026;-67
2022/05/21 03:22:37;;;;;;;1.20;1.10;;;21.50;53.00;;;;;;6245747;28;20026;-67
2022/05/21 03:25:41;;;;;;;1.70;1.30;;;21.50;53.00;;;;;;6245282;28;20028;-67
2022/05/21 03:28:44;;;;;;;1.20;1.10;;;21.50;53.00;;;;;;6246174;28;20041;-68
2022/05/21 03:31:46;;;;;;;1.40;1.20;;;21.50;53.70;;;;;;6269965;28;20024;-68
2022/05/21 03:34:49;;;;;;;1.10;1.00;;;21.50;53.10;;;;;;6252080;28;20028;-67
2022/05/21 03:37:51;;;;;;;1.50;1.38;;;21.50;53.00;;;;;;6269852;28;20021;-67
2022/05/21 03:40:53;;;;;;;1.30;1.20;;;21.50;53.00;;;;;;6270033;28;20025;-67
2022/05/21 03:43:57;;;;;;;1.10;1.00;;;21.50;53.00;;;;;;6252163;28;20033;-67
2022/05/21 03:47:02;;;;;;;1.27;1.17;;;21.50;53.10;;;;;;6269834;28;20032;-67
2022/05/21 03:50:06;;;;;;;1.20;1.10;;;21.50;53.00;;;;;;6269372;28;20108;-68
2022/05/21 03:53:09;;;;;;;1.20;1.10;;;21.50;53.10;;;;;;6255846;28;20029;-68
2022/05/21 03:56:11;;;;;;;1.15;1.05;;;21.50;53.10;;;;;;6227142;28;20033;-67
2022/05/21 03:59:13;;;;;;;1.63;1.33;;;21.50;53.10;;;;;;6244838;28;20022;-67
2022/05/21 04:02:17;;;;;;;1.30;1.10;;;21.50;53.10;;;;;;6243901;28;20025;-68
2022/05/21 04:05:21;;;;;;;1.10;1.00;;;21.50;53.10;;;;;;6244517;28;20029;-67
2022/05/21 04:09:03;;;;;;;1.55;1.27;;;21.50;53.10;;;;;;6227104;28;20029;-67
2022/05/21 04:12:29;;;;;;;1.38;1.27;;;21.50;53.10;;;;;;6244316;28;20038;-67
2022/05/21 04:15:54;;;;;;;2.33;1.30;;;21.50;53.10;;;;;;6226336;28;20566;-67
2022/05/21 04:23:07;;;;;;;1.20;1.10;;;21.50;53.10;;;;;;6234975;28;20045;-67
2022/05/21 04:26:09;;;;;;;1.35;1.25;;;21.50;53.10;;;;;;6242367;28;20033;-67
2022/05/21 04:29:11;;;;;;;1.13;0.93;;;21.50;53.10;;;;;;6244087;28;20554;-67
2022/05/21 04:32:12;;;;;;;1.20;1.10;;;21.50;53.10;;;;;;6243939;28;20061;-67
2022/05/21 04:35:15;;;;;;;1.30;1.15;;;21.50;53.10;;;;;;6243966;28;20382;-67
2022/05/21 04:38:17;;;;;;;1.13;0.90;;;21.50;53.10;;;;;;6226259;28;20116;-67
2022/05/21 04:41:20;;;;;;;1.95;1.30;;;21.50;53.10;;;;;;6243781;28;20488;-67
2022/05/21 04:44:30;;;;;;;1.50;1.30;;;21.50;53.10;;;;;;6225761;28;20021;-67
2022/05/21 04:47:32;;;;;;;1.25;1.15;;;21.50;53.10;;;;;;6225750;28;20037;-67
2022/05/21 04:50:42;;;;;;;1.52;1.40;;;21.50;53.10;;;;;;6243618;28;20487;-67
2022/05/21 04:58:04;;;;;;;1.17;1.08;;;21.50;53.10;;;;;;6241727;28;20048;-67
2022/05/21 05:01:41;;;;;;;1.70;1.10;;;21.50;53.10;;;;;;6246483;28;20022;-68
2022/05/21 05:04:52;;;;;;;1.30;1.10;;;21.50;53.10;;;;;;6227179;28;20021;-67
2022/05/21 05:12:23;;;;;;;1.38;1.27;;;21.50;53.10;;;;;;6242817;28;20041;-69
2022/05/21 05:15:27;;;;;;;1.20;1.10;;;21.50;53.10;;;;;;6276092;28;20056;-67
2022/05/21 05:18:38;;;;;;;1.52;1.30;;;21.50;53.10;;;;;;6276221;28;20419;-68
2022/05/21 05:22:09;;;;;;;1.40;1.23;;;21.50;53.10;;;;;;6256737;28;20496;-68
2022/05/21 05:25:13;;;;;;;1.13;1.02;;;21.50;53.10;;;;;;6266706;28;20063;-67
2022/05/21 05:28:32;;;;;;;1.13;1.03;;;21.50;53.10;;;;;;6275966;28;20056;-67
2022/05/21 05:31:55;;;;;;;;;;;;;;;;;;;;;
2022/05/21 05:35:09;;;;;;;1.20;1.05;;;21.50;53.10;;;;;;6251285;28;20148;-68
2022/05/21 05:38:53;;;;;;;2.00;1.33;;;21.50;53.10;;;;;;6233132;28;20053;-68
2022/05/21 05:41:55;;;;;;;1.17;1.08;;;21.50;53.10;;;;;;6233454;28;20029;-69
2022/05/21 05:44:56;;;;;;;1.48;1.20;;;21.50;53.10;;;;;;6241693;28;20025;-69
2022/05/21 05:47:57;;;;;;;1.15;1.05;;;21.50;53.10;;;;;;6249769;28;20060;-71
2022/05/21 05:50:59;;;;;;;1.27;1.13;;;21.50;53.20;;;;;;6250391;28;20029;-69
2022/05/21 05:54:01;;;;;;;1.40;1.17;;;21.50;53.30;;;;;;6249923;28;20116;-69
2022/05/21 05:57:02;;;;;;;1.40;1.30;;;21.50;53.10;;;;;;6249980;28;20018;-69
2022/05/21 06:00:14;;;;;;;1.30;1.17;;;21.50;53.10;;;;;;6249872;28;20076;-70
2022/05/21 06:03:18;;;;;;;1.85;1.25;;;21.50;53.10;;;;;;6249795;28;20511;-70
2022/05/21 06:06:26;;;;;;;1.45;1.30;;;21.50;53.10;;;;;;6249905;28;20029;-69
2022/05/21 06:17:29;;;;;;;1.63;1.27;;;21.50;53.10;;;;;;6188207;28;20054;-69
2022/05/21 06:20:42;;;;;;;1.30;1.10;;;21.50;53.10;;;;;;6243817;28;20034;-71
2022/05/21 06:27:55;;;;;;;1.20;1.10;;;21.50;53.10;;;;;;6257702;28;20029;-71
2022/05/21 06:31:00;;;;;;;2.08;1.50;;;21.50;53.10;;;;;;6229246;28;20107;-70
2022/05/21 06:34:30;;;;;;;1.55;1.10;;;21.50;53.10;;;;;;6215700;28;20169;-70
2022/05/21 06:37:31;;;;;;;1.42;1.15;;;21.50;53.10;;;;;;6201455;28;20129;-69
2022/05/21 06:40:32;;;;;;;1.50;1.30;;;21.50;53.10;;;;;;6239164;28;20392;-70
2022/05/21 06:47:26;;;;;;;1.40;1.30;;;21.60;53.20;;;;;;6264351;28;20021;-69
2022/05/21 06:50:28;;;;;;;1.70;1.33;;;21.60;53.10;;;;;;6214415;28;20109;-71
2022/05/21 06:54:21;;;;;;;1.88;1.48;;;21.70;53.20;;;;;;6245946;28;20078;-70
2022/05/21 06:57:28;;;;;;;3.20;1.40;;;21.70;53.10;;;;;;6227508;28;20021;-70
2022/05/21 07:30:33;;;;;;;1.63;1.30;;;22.00;52.90;;;;;;6219485;28;20037;-69
2022/05/21 07:33:41;;;;;;;1.70;1.30;;;22.00;52.90;;;;;;6208337;28;20289;-70
2022/05/21 07:36:41;;;;;;;1.23;1.13;;;22.00;52.70;;;;;;6218467;28;20037;-70
2022/05/21 07:39:42;;;;;;;1.73;1.20;;;22.10;52.70;;;;;;6187002;28;20034;-71
2022/05/21 07:42:43;;;;;;;2.47;1.30;;;22.00;52.80;;;;;;6217024;28;20076;-69
2022/05/21 07:45:45;;;;;;;1.92;1.52;;;22.00;52.80;;;;;;6202026;28;20441;-70
2022/05/21 07:49:48;;;;;;;1.73;1.25;;;22.00;53.00;;;;;;6218438;28;20240;-69
2022/05/21 07:52:49;;;;;;;1.25;1.15;;;22.10;53.00;;;;;;6218050;28;20050;-70
2022/05/21 07:55:52;;;;;;;1.92;1.35;;;22.00;52.80;;;;;;6218375;28;20109;-70
2022/05/21 07:58:53;;;;;;;1.67;1.23;;;22.10;52.90;;;;;;6201336;28;20428;-70
2022/05/21 08:05:56;;;;;;;1.55;1.35;;;22.00;52.80;;;;;;6218760;28;20014;-70
2022/05/21 08:09:38;;;;;;;1.70;1.45;;;22.10;53.00;;;;;;6201063;28;20528;-69
2022/05/21 08:12:42;;;;;;;1.20;1.10;;;22.00;52.90;;;;;;6218301;28;20319;-70
2022/05/21 08:15:54;;;;;;;1.85;1.35;;;22.00;52.90;;;;;;6213824;28;20417;-72
2022/05/21 08:18:55;;;;;;;2.63;1.20;;;22.00;53.00;;;;;;6210497;28;20065;-69
2022/05/21 08:26:56;;;;;;;2.97;1.30;;;22.00;52.80;;;;;;6201910;28;20022;-70
2022/05/21 08:29:08;;;;;;;1.65;1.20;;;22.00;52.80;;;;;;6201305;28;20463;-69
2022/05/21 08:40:19;;;;;;;1.55;1.30;;;22.10;52.90;;;;;;6225473;28;20029;-71
2022/05/21 08:43:43;;;;;;;1.38;1.27;;;22.10;52.80;;;;;;6224411;28;20228;-70
2022/05/21 08:47:41;;;;;;;1.02;0.93;;;22.10;52.90;;;;;;6206999;28;20026;-68
2022/05/21 08:50:47;;;;;;;1.25;1.15;;;22.10;52.90;;;;;;6214057;28;20037;-70
2022/05/21 08:53:50;;;;;;;1.60;1.17;;;22.00;52.70;;;;;;6200027;28;20034;-69
2022/05/21 08:56:54;;;;;;;1.70;1.10;;;22.00;52.80;;;;;;6200097;28;20037;-70
2022/05/21 09:00:06;;;;;;;1.05;0.95;;;22.00;52.80;;;;;;6200199;28;20052;-71
2022/05/21 09:04:23;;;;;;;;;;;;;;;;;;;;;
2022/05/21 09:11:38;;;;;;;1.20;1.10;;;22.10;52.90;;;;;;6062969;29;20064;-72
2022/05/21 09:14:47;;;;;;;1.35;1.05;;;22.10;52.90;;;;;;6111664;28;20034;-70
2022/05/21 09:17:47;;;;;;;2.10;1.15;;;22.00;52.80;;;;;;6176047;28;20117;-69
2022/05/21 09:21:08;;;;;;;1.30;1.20;;;22.10;52.90;;;;;;6213339;28;20026;-70
2022/05/21 09:24:45;;;;;;;3.22;0.90;;;22.10;52.90;;;;;;6212379;28;20045;-70
2022/05/21 09:28:27;;;;;;;1.50;1.33;;;22.10;52.80;;;;;;6175531;28;20027;-69
2022/05/21 09:32:14;;;;;;;1.10;1.00;;;22.10;52.80;;;;;;6159192;28;20106;-69
2022/05/21 09:35:18;;;;;;;1.00;0.90;;;22.10;52.80;;;;;;6181065;28;20038;-69
2022/05/21 09:38:31;;;;;;;1.25;1.13;;;22.10;52.80;;;;;;6189767;28;20077;-70
2022/05/21 09:41:32;;;;;;;2.08;0.90;;;22.10;52.80;;;;;;6182316;28;20023;-70
2022/05/21 09:48:06;;;;;;;1.08;0.90;;;22.10;52.80;;;;;;6194523;28;20030;-69
2022/05/21 09:51:24;;;;;;;1.25;0.93;;;22.10;52.80;;;;;;6194878;28;20084;-69
2022/05/21 09:55:22;;;;;;;1.27;0.98;;;22.10;52.80;;;;;;6195157;28;20497;-70
2022/05/21 09:58:22;;;;;;;1.63;1.10;;;22.10;52.80;;;;;;6123826;28;20043;-71
2022/05/21 10:05:25;;;;;;;1.00;0.90;;;22.10;52.80;;;;;;6195314;28;20049;-69
2022/05/21 10:12:16;;;;;;;1.30;1.08;;;22.10;52.80;;;;;;6170536;28;20540;-70
2022/05/21 10:15:51;;;;;;;1.08;0.90;;;22.10;52.80;;;;;;6169957;28;20078;-70
2022/05/21 10:19:20;;;;;;;2.60;1.20;;;22.10;52.80;;;;;;6184515;28;20480;-69
2022/05/21 10:22:33;;;;;;;1.85;1.00;;;22.10;52.80;;;;;;6171133;28;20042;-68
2022/05/21 10:26:01;;;;;;;2.05;0.90;;;22.10;52.90;;;;;;6187555;28;20179;-70
2022/05/21 10:29:10;;;;;;;1.45;1.05;;;22.10;52.80;;;;;;6209240;28;20100;-70
2022/05/21 10:33:01;;;;;;;1.20;0.82;;;22.10;52.80;;;;;;6220586;28;20073;-70
2022/05/21 10:36:44;;;;;;;1.38;1.20;;;22.10;52.80;;;;;;6221547;28;20029;-69
2022/05/21 10:40:13;;;;;;;1.33;0.90;;;22.10;52.80;;;;;;6219887;28;20447;-70
2022/05/21 10:43:45;;;;;;;1.10;1.00;;;22.10;52.80;;;;;;6226797;28;20029;-70
2022/05/21 10:46:51;;;;;;;1.10;0.98;;;22.20;52.80;;;;;;6202155;28;20547;-70
2022/05/21 10:50:33;;;;;;;1.20;0.95;;;22.10;52.70;;;;;;6216546;28;20080;-69
2022/05/21 10:53:45;;;;;;;1.35;1.10;;;22.20;52.70;;;;;;6203630;28;20060;-70
2022/05/21 10:57:02;;;;;;;1.15;0.80;;;22.20;52.70;;;;;;6220527;28;20033;-70
2022/05/21 11:00:10;;;;;;;0.95;0.90;;;22.20;52.70;;;;;;6217837;28;20117;-68
2022/05/21 11:03:48;;;;;;;1.60;1.20;;;22.20;52.70;;;;;;6220297;28;20037;-70
2022/05/21 11:07:14;;;;;;;1.48;1.00;;;22.20;52.80;;;;;;6219669;28;20088;-69
2022/05/21 11:10:33;;;;;;;1.00;0.90;;;22.10;52.70;;;;;;6201272;28;20030;-69
2022/05/21 11:14:19;;;;;;;1.10;1.00;;;22.20;52.80;;;;;;6209499;28;20643;-69
2022/05/21 11:17:54;;;;;;;1.20;0.90;;;22.10;52.70;;;;;;6174661;28;20060;-69
2022/05/21 11:21:11;;;;;;;1.15;0.95;;;22.20;52.80;;;;;;6195568;28;20101;-69
2022/05/21 11:24:41;;;;;;;2.28;1.27;;;22.10;52.70;;;;;;6219569;28;20034;-70
2022/05/21 11:28:20;;;;;;;1.20;1.10;;;22.10;52.80;;;;;;6219879;28;20071;-69
2022/05/21 11:38:24;;;;;;;1.13;1.02;;;22.20;52.60;;;;;;6197606;28;20018;-67
2022/05/21 11:42:09;;;;;;;1.52;1.02;;;22.20;52.70;;;;;;6200125;28;20053;-69
2022/05/21 11:45:09;;;;;;;2.95;1.27;;;22.30;52.90;;;;;;6219877;28;20186;-67
2022/05/21 11:48:18;;;;;;;0.80;0.80;;;22.30;52.80;;;;;;6202585;28;20026;-67
2022/05/21 11:51:22;;;;;;;1.15;0.80;;;22.20;52.70;;;;;;6220202;28;20026;-67
2022/05/21 11:54:44;;;;;;;1.20;1.00;;;22.30;52.90;;;;;;6220313;28;20030;-67
2022/05/21 11:57:54;;;;;;;0.73;0.73;;;22.20;52.70;;;;;;6220050;28;20078;-67
2022/05/21 12:00:55;;;;;;;0.98;0.88;;;22.30;52.80;;;;;;6202651;28;20390;-67
2022/05/21 12:03:55;;;;;;;1.25;0.95;;;22.20;52.70;;;;;;6220020;28;20033;-67
2022/05/21 12:06:56;;;;;;;1.13;1.02;;;22.20;52.70;;;;;;6202550;28;20025;-67
2022/05/21 12:10:08;;;;;;;0.93;0.90;;;22.20;52.70;;;;;;6219772;28;20041;-67
2022/05/21 12:13:21;;;;;;;1.00;0.90;;;22.20;52.70;;;;;;6219699;28;20105;-67
2022/05/21 12:16:22;;;;;;;0.80;0.80;;;22.20;52.70;;;;;;6202127;28;20393;-68
2022/05/21 12:19:44;;;;;;;0.80;0.80;;;22.20;52.70;;;;;;6220052;28;20021;-68
2022/05/21 12:22:53;;;;;;;2.00;1.30;;;22.20;52.70;;;;;;6219703;28;20119;-67
2022/05/21 12:25:57;;;;;;;1.35;1.05;;;22.30;52.80;;;;;;6219752;28;20029;-68
2022/05/21 12:29:13;;;;;;;1.10;1.00;;;22.30;52.90;;;;;;6201623;28;20113;-67
2022/05/21 12:32:23;;;;;;;1.92;1.20;;;22.30;52.80;;;;;;6201371;28;20049;-67
2022/05/21 12:35:25;;;;;;;0.80;0.80;;;22.30;52.80;;;;;;6219334;28;20022;-67
2022/05/21 12:38:32;;;;;;;1.00;0.90;;;22.20;52.70;;;;;;6219567;28;20370;-67
2022/05/21 12:41:38;;;;;;;0.88;0.88;;;22.20;52.70;;;;;;6219465;28;20033;-67
2022/05/21 12:44:45;;;;;;;1.00;0.90;;;22.30;52.80;;;;;;6201572;28;20440;-68
2022/05/21 12:47:46;;;;;;;1.02;0.90;;;22.20;53.40;;;;;;6219031;28;20393;-67
2022/05/21 12:50:58;;;;;;;1.10;0.98;;;22.30;52.80;;;;;;6218933;28;20025;-68
2022/05/21 12:54:02;;;;;;;1.40;1.00;;;22.30;52.80;;;;;;6218877;28;20030;-67
2022/05/21 12:57:13;;;;;;;0.70;0.70;;;22.30;52.80;;;;;;6218927;28;20021;-68
2022/05/21 13:00:15;;;;;;;0.90;0.85;;;22.30;52.80;;;;;;6218997;28;20022;-69
2022/05/21 13:03:16;;;;;;;1.05;0.95;;;22.30;52.80;;;;;;6201064;28;20037;-67
2022/05/21 13:06:23;;;;;;;1.20;1.00;;;22.20;52.70;;;;;;6201342;28;20042;-67
2022/05/21 13:09:24;;;;;;;0.70;0.70;;;22.20;52.70;;;;;;6201681;28;20037;-68
2022/05/21 13:12:28;;;;;;;1.00;0.90;;;22.20;52.70;;;;;;6218629;28;20069;-68
2022/05/21 13:15:32;;;;;;;0.97;0.90;;;22.30;52.80;;;;;;6218906;28;20030;-67
2022/05/21 13:18:58;;;;;;;1.30;1.00;;;22.20;52.70;;;;;;6206633;28;20030;-69
2022/05/21 13:22:11;;;;;;;;;;;22.30;52.70;;;;;;6219430;28;20068;-69
2022/05/21 13:25:14;;;;;;;4.30;1.00;;;22.30;52.70;;;;;;6216496;28;20384;-72
2022/05/21 13:28:18;;;;;;;9.43;1.15;;;22.10;50.80;;;;;;6222247;28;20026;-70
2022/05/21 13:31:21;;;;;;;2.10;1.23;;;22.10;49.20;;;;;;6203857;28;20061;-69
2022/05/21 13:34:26;;;;;;;1.80;1.20;;;22.10;48.70;;;;;;6221271;28;20405;-70
2022/05/21 13:37:53;;;;;;;1.95;0.90;;;22.30;48.50;;;;;;6221672;28;20069;-71
2022/05/21 13:40:55;;;;;;;1.20;0.90;;;22.40;48.30;;;;;;6219232;28;20109;-66
2022/05/21 13:43:58;;;;;;;2.60;1.20;;;22.50;48.30;;;;;;6220278;28;20030;-69
2022/05/21 13:47:02;;;;;;;1.50;0.98;;;22.50;48.10;;;;;;6220961;28;20030;-66
2022/05/21 13:50:04;;;;;;;1.10;1.00;;;22.50;48.00;;;;;;6228355;28;20469;-65
2022/05/21 13:53:08;;;;;;;1.00;0.70;;;22.60;48.00;;;;;;6232293;28;20436;-67
2022/05/21 13:56:27;;;;;;;2.40;0.82;;;22.60;48.00;;;;;;6220727;28;20030;-68
2022/05/21 13:59:28;;;;;;;1.48;0.80;;;22.60;47.80;;;;;;6220846;28;20022;-68
2022/05/21 14:02:38;;;;;;;1.05;0.80;;;22.70;47.80;;;;;;6213622;28;20519;-68
2022/05/21 14:05:58;;;;;;;1.40;0.70;;;22.70;47.80;;;;;;6202738;28;20504;-67
2022/05/21 14:09:00;;;;;;;2.05;0.80;;;22.70;47.60;;;;;;6220154;28;20102;-68
2022/05/21 14:12:12;;;;;;;1.50;0.80;;;22.70;47.50;;;;;;6206849;28;20041;-67
2022/05/21 14:15:30;;;;;;;1.25;0.80;;;22.70;47.30;;;;;;6206412;28;20014;-67
2022/05/21 14:18:40;;;;;;;3.38;0.82;;;22.70;47.40;;;;;;6220619;28;20119;-66
2022/05/21 14:22:14;;;;;;;1.30;0.90;;;22.80;48.20;;;;;;6195008;28;20030;-69
2022/05/21 14:25:29;;;;;;;2.72;0.98;;;22.70;47.40;;;;;;6202497;28;20026;-66
2022/05/21 14:28:30;;;;;;;3.80;1.30;;;22.70;47.50;;;;;;6220324;28;20050;-68
2022/05/21 14:31:40;;;;;;;1.38;0.82;;;22.80;47.60;;;;;;6220026;28;20099;-68
2022/05/21 14:34:41;;;;;;;1.13;0.80;;;22.70;47.50;;;;;;6218580;28;20030;-68
2022/05/21 14:37:43;;;;;;;1.95;0.80;;;22.70;47.60;;;;;;6219540;28;20030;-67
2022/05/21 14:40:51;;;;;;;2.80;1.30;;;22.70;47.50;;;;;;6219785;28;20117;-67
2022/05/21 14:43:52;;;;;;;2.30;0.82;;;22.70;47.50;;;;;;5299439;28;10001059;-68
2022/05/21 14:53:36;;;;;;;2.35;1.00;;;22.70;47.30;;;;;;6202753;28;20034;-68
2022/05/21 14:56:37;;;;;;;2.33;1.00;;;22.80;47.40;;;;;;6195150;28;20037;-68
2022/05/21 14:59:38;;;;;;;2.90;1.08;;;22.70;47.40;;;;;;6177314;28;20030;-68
2022/05/21 15:02:39;;;;;;;2.05;1.13;;;22.70;47.30;;;;;;5306263;28;10000523;-68
2022/05/21 15:05:41;;;;;;;2.05;1.10;;;22.80;47.30;;;;;;6170955;28;20028;-68
2022/05/21 15:08:42;;;;;;;1.55;0.90;;;22.70;47.20;;;;;;6184134;28;20121;-67
2022/05/21 15:11:43;;;;;;;5.13;1.02;;;22.70;47.20;;;;;;6184543;28;20038;-67
2022/05/21 15:14:44;;;;;;;2.67;1.20;;;22.70;47.10;;;;;;6170584;28;20027;-68
2022/05/21 15:17:45;;;;;;;1.98;1.10;;;22.70;47.10;;;;;;6168988;28;20073;-68
2022/05/21 15:20:46;;;;;;;4.00;1.20;;;22.70;47.00;;;;;;6170641;28;20015;-67
2022/05/21 15:23:47;;;;;;;2.63;1.25;;;22.70;47.00;;;;;;6216660;28;20085;-67
2022/05/21 15:26:48;;;;;;;2.63;1.10;;;22.80;46.90;;;;;;6218794;28;20034;-68
2022/05/21 15:29:48;;;;;;;7.10;1.17;;;22.70;46.80;;;;;;6228227;28;20090;-68
2022/05/21 15:32:49;;;;;;;2.95;1.48;;;22.70;46.80;;;;;;6245691;28;20093;-68
2022/05/21 15:35:51;;;;;;;1.33;1.00;;;22.70;46.70;;;;;;6225653;28;20031;-68
2022/05/21 15:38:52;;;;;;;2.15;0.80;;;22.80;46.60;;;;;;6225543;28;20113;-68
2022/05/21 15:41:55;;;;;;;3.45;0.80;;;22.70;46.60;;;;;;6225645;28;20718;-68
2022/05/21 15:44:56;;;;;;;1.60;0.80;;;22.70;46.50;;;;;;6224603;28;20163;-68
2022/05/21 15:47:56;;;;;;;1.15;0.80;;;22.70;46.40;;;;;;6242909;28;20048;-68
2022/05/21 15:50:57;;;;;;;1.27;0.80;;;22.80;46.40;;;;;;6242567;28;20128;-68
2022/05/21 15:53:58;;;;;;;3.72;0.80;;;22.70;46.20;;;;;;6242496;28;20168;-68
2022/05/21 15:57:00;;;;;;;2.05;0.88;;;22.70;46.20;;;;;;6243061;28;20096;-68
2022/05/21 16:00:04;;;;;;;2.58;1.05;;;22.70;46.20;;;;;;6224905;28;20064;-68
2022/05/21 16:03:04;;;;;;;2.17;0.73;;;22.80;46.30;;;;;;6225188;28;20503;-68
2022/05/21 16:06:05;;;;;;;1.38;0.73;;;22.80;46.10;;;;;;6242224;28;20064;-68
2022/05/21 16:09:05;;;;;;;2.22;0.80;;;22.70;46.00;;;;;;6242254;28;20029;-68
2022/05/21 16:12:07;;;;;;;2.20;1.10;;;22.80;46.00;;;;;;6228804;28;20113;-68
2022/05/21 16:15:15;;;;;;;2.53;0.90;;;22.70;46.00;;;;;;6200031;28;20493;-68
2022/05/21 16:18:17;;;;;;;2.85;0.80;;;22.80;45.90;;;;;;6217766;28;20129;-68
2022/05/21 16:21:22;;;;;;;2.30;0.93;;;22.80;45.80;;;;;;6216466;28;20018;-68
2022/05/21 16:24:23;;;;;;;2.20;1.02;;;22.80;45.90;;;;;;6218139;28;20025;-68
2022/05/21 16:27:24;;;;;;;3.38;1.33;;;22.80;46.00;;;;;;6216304;28;20397;-68
2022/05/21 16:30:25;;;;;;;4.45;0.90;;;22.80;45.90;;;;;;6220181;28;20037;-68
2022/05/21 16:33:26;;;;;;;2.28;0.85;;;22.80;45.90;;;;;;6241850;28;20033;-68
2022/05/21 16:36:27;;;;;;;3.17;1.02;;;22.70;45.70;;;;;;6224356;28;20116;-68
2022/05/21 16:39:28;;;;;;;1.65;0.88;;;22.80;45.60;;;;;;6241603;28;20094;-68
2022/05/21 16:42:31;;;;;;;1.83;0.80;;;22.80;45.60;;;;;;6224434;28;20033;-68
2022/05/21 16:45:32;;;;;;;2.05;0.82;;;22.80;45.60;;;;;;6224235;28;20447;-68
2022/05/21 16:48:36;;;;;;;1.40;0.80;;;22.80;45.60;;;;;;6241791;28;20026;-68
2022/05/21 16:51:37;;;;;;;3.95;0.90;;;22.70;45.50;;;;;;6241667;28;20026;-68
2022/05/21 16:54:38;;;;;;;2.20;1.00;;;22.80;45.60;;;;;;6223644;28;20061;-68
2022/05/21 16:57:39;;;;;;;1.33;0.73;;;22.70;45.50;;;;;;6223092;28;20515;-68
2022/05/21 17:00:39;;;;;;;5.13;1.45;;;22.80;45.50;;;;;;6223728;28;20029;-68
2022/05/21 17:03:40;;;;;;;4.82;0.90;;;22.70;45.40;;;;;;6223403;28;20128;-68
2022/05/21 17:06:41;;;;;;;2.55;0.90;;;22.80;45.50;;;;;;6234149;28;20160;-68
2022/05/21 17:09:42;;;;;;;4.03;1.08;;;22.70;45.40;;;;;;6241584;28;20052;-68
2022/05/21 17:12:43;;;;;;;2.38;0.95;;;22.70;45.30;;;;;;6240992;28;20029;-68
2022/05/21 17:15:43;;;;;;;3.17;0.90;;;22.80;45.30;;;;;;6241732;28;20025;-70
2022/05/21 17:18:44;;;;;;;1.75;0.73;;;22.80;45.30;;;;;;6240275;28;20021;-67
2022/05/21 17:21:59;;;;;;;7.03;1.00;;;22.80;45.20;;;;;;6228658;28;20184;-71
2022/05/21 17:24:59;;;;;;;4.70;1.00;;;22.80;45.20;;;;;;6248414;28;20075;-68
2022/05/21 17:31:19;;;;;;;4.93;0.88;;;22.70;44.90;;;;;;6238974;28;20105;-70
2022/05/21 17:34:20;;;;;;;5.05;0.70;;;22.70;44.90;;;;;;6215547;28;20107;-70
2022/05/21 17:37:20;;;;;;;1.45;0.75;;;22.80;45.00;;;;;;6217121;28;20022;-68
2022/05/21 17:40:21;;;;;;;4.30;0.80;;;22.90;45.10;;;;;;6216206;28;20076;-68
2022/05/21 17:43:22;;;;;;;2.80;0.73;;;22.80;44.80;;;;;;6216695;28;20034;-67
2022/05/21 17:46:24;;;;;;;4.28;0.82;;;22.80;44.80;;;;;;6216085;28;20568;-68
2022/05/21 17:49:24;;;;;;;10.10;0.82;;;22.80;44.80;;;;;;6216378;28;20056;-69
2022/05/21 17:52:25;;;;;;;2.97;0.73;;;22.70;44.60;;;;;;6216389;28;20037;-68
2022/05/21 17:55:26;;;;;;;2.70;0.88;;;22.70;44.50;;;;;;6215279;28;20053;-67
2022/05/21 17:58:27;;;;;;;3.17;0.90;;;22.80;44.70;;;;;;6216130;28;20026;-68
2022/05/21 18:01:28;;;;;;;2.15;0.75;;;22.70;44.60;;;;;;6215123;28;20048;-68
2022/05/21 18:04:30;;;;;;;4.38;1.20;;;22.80;44.50;;;;;;6216172;28;20029;-66
2022/05/21 18:07:31;;;;;;;2.45;0.70;;;22.70;44.40;;;;;;6235237;28;20029;-70
2022/05/21 18:10:33;;;;;;;1.48;0.70;;;22.70;44.30;;;;;;6245365;28;20056;-70
2022/05/21 18:13:34;;;;;;;2.13;0.73;;;22.70;44.50;;;;;;6220585;28;20030;-70
2022/05/21 18:19:57;;;;;;;1.48;0.80;;;22.70;44.60;;;;;;6221564;28;20017;-70
2022/05/21 18:22:58;;;;;;;2.15;0.80;;;22.70;44.70;;;;;;6221391;28;20507;-69
2022/05/21 18:25:58;;;;;;;3.60;0.70;;;22.70;44.80;;;;;;6221301;28;20033;-70